createdAt,value
2018-04-25T00:01:23.857Z,59.60
2018-04-25T00:03:52.111Z,58.70
2018-04-25T00:06:20.378Z,58.20
2018-04-25T00:08:48.630Z,59.90
2018-04-25T00:11:17.660Z,60.30
2018-04-25T00:13:45.951Z,60.10
2018-04-25T00:16:14.203Z,61.80
2018-04-25T00:18:42.461Z,58.50
2018-04-25T00:21:11.497Z,58.00
2018-04-25T00:23:39.739Z,57.90
2018-04-25T00:26:08.748Z,61.20
2018-04-25T00:28:37.011Z,61.00
2018-04-25T00:31:06.016Z,64.70
2018-04-25T00:33:34.293Z,64.80
2018-04-25T00:36:02.547Z,64.20
2018-04-25T00:38:31.558Z,63.60
2018-04-25T00:40:59.822Z,63.60
2018-04-25T00:43:28.837Z,63.30
2018-04-25T00:45:57.152Z,63.50
2018-04-25T00:48:25.428Z,63.90
2018-04-25T00:50:53.717Z,67.10
2018-04-25T00:53:21.963Z,65.60
2018-04-25T00:55:50.255Z,63.10
2018-04-25T00:58:18.503Z,60.40
2018-04-25T01:00:46.810Z,61.10
2018-04-25T01:03:15.057Z,60.40
2018-04-25T01:05:43.313Z,61.30
2018-04-25T01:08:12.331Z,60.50
2018-04-25T01:10:40.575Z,61.10
2018-04-25T01:13:09.663Z,61.20
2018-04-25T01:15:37.938Z,61.10
2018-04-25T01:18:06.241Z,63.60
2018-04-25T01:20:35.239Z,62.10
2018-04-25T01:23:08.226Z,62.10
2018-04-25T01:25:40.207Z,60.20
2018-04-25T01:28:09.445Z,60.20
2018-04-25T01:30:57.484Z,63.80
2018-04-25T01:33:29.480Z,62.20
2018-04-25T01:36:01.242Z,64.80
2018-04-25T01:38:31.048Z,64.80
2018-04-25T01:40:59.330Z,64.60
2018-04-25T01:43:28.409Z,66.20
2018-04-25T01:45:59.440Z,66.80
2018-04-25T01:48:32.668Z,67.40
2018-04-25T01:51:01.185Z,69.00
2018-04-25T01:53:41.420Z,69.00
2018-04-25T01:56:21.657Z,67.40
2018-04-25T01:59:02.364Z,70.00
2018-04-25T02:01:30.117Z,70.10
2018-04-25T02:03:59.127Z,73.00
2018-04-25T02:06:27.367Z,70.50
2018-04-25T02:08:56.431Z,72.50
2018-04-25T02:11:24.714Z,72.50
2018-04-25T02:13:52.991Z,71.60
2018-04-25T02:16:21.250Z,71.80
2018-04-25T02:18:49.495Z,72.00
2018-04-25T02:21:17.807Z,71.40
2018-04-25T02:23:46.082Z,71.20
2018-04-25T02:26:14.330Z,71.60
2018-04-25T02:28:42.572Z,73.80
2018-04-25T02:31:11.634Z,73.30
2018-04-25T02:33:39.904Z,73.10
2018-04-25T02:36:08.150Z,73.10
2018-04-25T02:38:36.395Z,73.50
2018-04-25T02:41:05.484Z,73.30
2018-04-25T02:43:33.763Z,73.20
2018-04-25T02:46:02.040Z,73.00
2018-04-25T02:48:30.300Z,74.10
2018-04-25T02:50:58.583Z,74.60
2018-04-25T02:53:26.823Z,75.10
2018-04-25T02:55:55.325Z,75.80
2018-04-25T02:58:24.079Z,75.10
2018-04-25T03:00:52.375Z,75.30
2018-04-25T03:03:20.683Z,76.10
2018-04-25T03:05:48.959Z,76.50
2018-04-25T03:08:18.101Z,75.90
2018-04-25T03:10:46.353Z,76.20
2018-04-25T03:13:14.638Z,74.20
2018-04-25T03:15:43.656Z,74.90
2018-04-25T03:18:12.415Z,74.90
2018-04-25T03:20:41.436Z,76.10
2018-04-25T03:23:09.723Z,75.30
2018-04-25T03:25:37.967Z,75.20
2018-04-25T03:28:07.029Z,78.10
2018-04-25T03:30:35.322Z,78.10
2018-04-25T03:33:03.607Z,76.90
2018-04-25T03:35:31.894Z,75.80
2018-04-25T03:38:00.905Z,77.80
2018-04-25T03:40:29.216Z,77.70
2018-04-25T03:42:57.507Z,76.00
2018-04-25T03:45:25.790Z,74.90
2018-04-25T03:47:54.093Z,76.60
2018-04-25T03:50:22.429Z,76.00
2018-04-25T03:52:50.677Z,76.40
2018-04-25T03:55:18.944Z,73.10
2018-04-25T03:57:48.716Z,75.30
2018-04-25T04:00:16.959Z,75.00
2018-04-25T04:02:45.215Z,74.70
2018-04-25T04:05:13.472Z,76.70
2018-04-25T04:07:42.505Z,76.00
2018-04-25T04:10:10.742Z,75.70
2018-04-25T04:12:40.655Z,74.70
2018-04-25T04:15:09.687Z,73.70
2018-04-25T04:17:38.758Z,73.60
2018-04-25T04:20:07.779Z,74.70
2018-04-25T04:22:36.022Z,74.90
2018-04-25T04:25:05.093Z,75.50
2018-04-25T04:27:33.365Z,75.40
2018-04-25T04:30:01.615Z,75.20
2018-04-25T04:32:29.853Z,75.90
2018-04-25T04:34:58.966Z,77.10
2018-04-25T04:37:27.195Z,76.80
2018-04-25T04:39:55.457Z,76.50
2018-04-25T04:42:24.086Z,77.20
2018-04-25T04:44:53.119Z,76.20
2018-04-25T04:47:21.366Z,76.10
2018-04-25T04:49:51.198Z,76.80
2018-04-25T04:52:19.474Z,77.00
2018-04-25T04:54:47.750Z,78.10
2018-04-25T04:57:16.052Z,77.00
2018-04-25T04:59:44.283Z,77.30
2018-04-25T05:02:13.355Z,73.50
2018-04-25T05:04:42.365Z,73.40
2018-04-25T05:07:10.651Z,75.20
2018-04-25T05:09:39.858Z,73.60
2018-04-25T05:12:08.868Z,72.10
2018-04-25T05:14:37.110Z,72.10
2018-04-25T05:17:06.212Z,74.60
2018-04-25T05:19:35.866Z,74.80
2018-04-25T05:22:04.180Z,74.40
2018-04-25T05:24:32.497Z,73.60
2018-04-25T05:27:01.529Z,75.60
2018-04-25T05:29:29.781Z,75.70
2018-04-25T05:31:58.139Z,75.70
2018-04-25T05:34:26.336Z,75.50
2018-04-25T05:36:54.590Z,74.60
2018-04-25T05:39:22.893Z,75.30
2018-04-25T05:41:51.171Z,74.00
2018-04-25T05:44:19.472Z,75.20
2018-04-25T05:46:47.742Z,76.10
2018-04-25T05:49:16.053Z,73.00
2018-04-25T05:51:44.404Z,74.30
2018-04-25T05:54:12.631Z,75.40
2018-04-25T05:56:40.886Z,74.50
2018-04-25T05:59:09.199Z,75.40
2018-04-25T06:01:37.443Z,74.60
2018-04-25T06:04:06.500Z,73.30
2018-04-25T06:06:35.372Z,73.30
2018-04-25T06:09:03.620Z,74.10
2018-04-25T06:11:32.696Z,74.60
2018-04-25T06:14:00.987Z,74.50
2018-04-25T06:16:30.032Z,75.00
2018-04-25T06:18:58.280Z,75.00
2018-04-25T06:21:26.596Z,74.20
2018-04-25T06:23:54.862Z,75.20
2018-04-25T06:26:23.161Z,73.80
2018-04-25T06:28:51.399Z,73.70
2018-04-25T06:31:19.679Z,73.10
2018-04-25T06:33:47.929Z,73.40
2018-04-25T06:36:16.940Z,72.80
2018-04-25T06:38:45.353Z,72.80
2018-04-25T06:41:13.589Z,72.60
2018-04-25T06:43:41.842Z,72.70
2018-04-25T06:46:10.863Z,71.80
2018-04-25T06:48:39.153Z,71.80
2018-04-25T06:51:07.437Z,70.60
2018-04-25T06:53:35.727Z,70.30
2018-04-25T06:56:04.278Z,68.70
2018-04-25T06:58:32.542Z,68.70
2018-04-25T07:01:01.625Z,67.60
2018-04-25T07:03:31.380Z,67.00
2018-04-25T07:05:59.661Z,67.00
2018-04-25T07:08:27.907Z,67.60
2018-04-25T07:10:56.928Z,65.80
2018-04-25T07:13:25.252Z,65.80
2018-04-25T07:15:53.462Z,64.30
2018-04-25T07:18:21.746Z,64.90
2018-04-25T07:20:50.061Z,64.00
2018-04-25T07:23:18.300Z,64.30
2018-04-25T07:25:46.566Z,64.00
2018-04-25T07:28:14.885Z,63.80
2018-04-25T07:30:43.171Z,63.00
2018-04-25T07:33:11.417Z,63.20
2018-04-25T07:35:39.678Z,62.40
2018-04-25T07:38:07.940Z,62.70
2018-04-25T07:40:36.999Z,61.30
2018-04-25T07:43:05.234Z,61.20
2018-04-25T07:45:33.552Z,62.00
2018-04-25T07:48:01.799Z,62.10
2018-04-25T07:50:30.715Z,61.10
2018-04-25T07:52:58.990Z,60.70
2018-04-25T07:55:27.233Z,60.70
2018-04-25T07:57:55.479Z,61.30
2018-04-25T08:00:24.532Z,61.30
2018-04-25T08:02:52.819Z,61.30
2018-04-25T08:05:21.068Z,61.00
2018-04-25T08:07:49.320Z,59.20
2018-04-25T08:10:18.329Z,60.10
2018-04-25T08:12:58.551Z,60.10
2018-04-25T08:15:53.558Z,59.80
2018-04-25T08:18:34.424Z,59.00
2018-04-25T08:21:14.738Z,59.00
2018-04-25T08:23:42.992Z,58.90
2018-04-25T08:26:11.307Z,57.80
2018-04-25T08:28:39.614Z,57.20
2018-04-25T08:31:07.843Z,56.10
2018-04-25T08:33:36.127Z,56.70
2018-04-25T08:36:05.117Z,56.70
2018-04-25T08:38:33.402Z,56.70
2018-04-25T08:41:01.652Z,56.90
2018-04-25T08:43:29.902Z,56.80
2018-04-25T08:45:58.204Z,56.80
2018-04-25T08:48:27.243Z,56.60
2018-04-25T08:50:55.495Z,56.50
2018-04-25T08:53:23.783Z,56.50
2018-04-25T08:55:52.095Z,55.60
2018-04-25T08:58:21.146Z,53.50
2018-04-25T09:00:49.389Z,53.50
2018-04-25T09:03:18.451Z,53.40
2018-04-25T09:05:46.767Z,53.30
2018-04-25T09:08:14.962Z,53.20
2018-04-25T09:10:43.209Z,53.70
2018-04-25T09:13:12.330Z,52.80
2018-04-25T09:15:40.573Z,52.70
2018-04-25T09:18:08.822Z,51.90
2018-04-25T09:20:37.111Z,52.50
2018-04-25T09:23:05.414Z,52.00
2018-04-25T09:25:34.448Z,51.90
2018-04-25T09:28:02.726Z,52.40
2018-04-25T09:30:31.016Z,51.30
2018-04-25T09:32:59.283Z,51.70
2018-04-25T09:35:27.569Z,52.90
2018-04-25T09:37:55.811Z,52.20
2018-04-25T09:40:24.874Z,52.20
2018-04-25T09:42:53.152Z,52.10
2018-04-25T09:45:21.415Z,52.00
2018-04-25T09:47:49.687Z,52.00
2018-04-25T09:50:17.970Z,51.00
2018-04-25T09:52:46.206Z,51.10
2018-04-25T09:55:14.509Z,51.70
2018-04-25T09:57:42.811Z,50.70
2018-04-25T10:00:10.998Z,49.90
2018-04-25T10:02:39.297Z,50.20
2018-04-25T10:05:08.319Z,49.80
2018-04-25T10:07:36.617Z,49.80
2018-04-25T10:10:04.861Z,50.20
2018-04-25T10:12:33.164Z,50.40
2018-04-25T10:15:01.405Z,48.60
2018-04-25T10:17:30.489Z,48.60
2018-04-25T10:19:58.769Z,48.50
2018-04-25T10:22:27.767Z,48.70
2018-04-25T10:24:56.798Z,49.30
2018-04-25T10:27:25.090Z,49.30
2018-04-25T10:29:53.344Z,50.00
2018-04-25T10:32:21.631Z,50.20
2018-04-25T10:34:49.922Z,50.70
2018-04-25T10:37:18.171Z,51.10
2018-04-25T10:39:46.441Z,51.30
2018-04-25T10:42:14.730Z,50.80
2018-04-25T10:44:42.973Z,50.00
2018-04-25T10:47:12.043Z,49.10
2018-04-25T10:49:40.282Z,49.10
2018-04-25T10:52:08.541Z,48.60
2018-04-25T10:54:36.801Z,48.50
2018-04-25T10:57:05.848Z,46.90
2018-04-25T10:59:34.115Z,46.40
2018-04-25T11:02:02.402Z,47.30
2018-04-25T11:04:30.725Z,45.60
2018-04-25T11:06:58.934Z,45.30
2018-04-25T11:09:27.176Z,47.00
2018-04-25T11:11:56.230Z,44.70
2018-04-25T11:14:24.475Z,44.70
2018-04-25T11:16:52.761Z,45.70
2018-04-25T11:19:21.061Z,44.60
2018-04-25T11:21:49.346Z,45.40
2018-04-25T11:24:17.596Z,45.40
2018-04-25T11:26:45.838Z,45.10
2018-04-25T11:29:14.112Z,45.70
2018-04-25T11:31:43.259Z,45.80
2018-04-25T11:34:11.618Z,45.80
2018-04-25T11:36:39.849Z,46.00
2018-04-25T11:39:08.862Z,42.70
2018-04-25T11:41:37.155Z,42.60
2018-04-25T11:44:05.484Z,43.40
2018-04-25T11:46:33.762Z,43.10
2018-04-25T11:49:02.078Z,42.60
2018-04-25T11:51:31.004Z,43.00
2018-04-25T11:53:59.251Z,42.10
2018-04-25T11:56:27.504Z,43.80
2018-04-25T11:58:56.523Z,41.80
2018-04-25T12:01:24.830Z,41.90
2018-04-25T12:03:53.899Z,41.30
2018-04-25T12:06:22.152Z,41.30
2018-04-25T12:08:51.212Z,40.50
2018-04-25T12:11:19.547Z,40.40
2018-04-25T12:13:47.862Z,40.10
2018-04-25T12:16:16.199Z,39.10
2018-04-25T12:18:45.242Z,37.10
2018-04-25T12:21:13.820Z,37.20
2018-04-25T12:23:42.146Z,38.90
2018-04-25T12:26:11.169Z,40.20
2018-04-25T12:28:39.445Z,40.10
2018-04-25T12:31:07.704Z,38.10
2018-04-25T12:33:36.759Z,38.90
2018-04-25T12:36:05.039Z,38.90
2018-04-25T12:38:33.309Z,40.00
2018-04-25T12:41:01.604Z,40.20
2018-04-25T12:43:29.889Z,40.50
2018-04-25T12:45:58.140Z,41.20
2018-04-25T12:48:26.430Z,39.60
2018-04-25T12:50:54.753Z,40.40
2018-04-25T12:53:23.025Z,39.60
2018-04-25T12:55:52.043Z,40.40
2018-04-25T12:58:20.286Z,40.30
2018-04-25T13:00:49.327Z,41.20
2018-04-25T13:03:17.607Z,41.20
2018-04-25T13:05:45.911Z,41.80
2018-04-25T13:08:14.182Z,42.20
2018-04-25T13:10:42.455Z,42.00
2018-04-25T13:13:10.730Z,42.20
2018-04-25T13:15:39.399Z,42.40
2018-04-25T13:18:07.679Z,41.00
2018-04-25T13:20:35.911Z,41.20
2018-04-25T13:23:04.207Z,41.30
2018-04-25T13:25:32.452Z,42.10
2018-04-25T13:28:01.475Z,41.70
2018-04-25T13:30:29.768Z,41.80
2018-04-25T13:32:58.082Z,42.40
2018-04-25T13:35:26.371Z,42.50
2018-04-25T13:37:55.469Z,42.40
2018-04-25T13:40:23.690Z,43.00
2018-04-25T13:42:51.974Z,42.80
2018-04-25T13:45:20.270Z,42.40
2018-04-25T13:47:48.549Z,41.80
2018-04-25T13:50:16.915Z,42.40
2018-04-25T13:52:45.176Z,42.70
2018-04-25T13:55:13.423Z,42.00
2018-04-25T13:57:42.444Z,42.20
2018-04-25T14:00:10.829Z,42.20
2018-04-25T14:02:39.067Z,41.90
2018-04-25T14:05:08.138Z,41.20
2018-04-25T14:07:36.416Z,41.10
2018-04-25T14:10:04.727Z,41.30
2018-04-25T14:12:33.727Z,41.80
2018-04-25T14:15:01.982Z,41.80
2018-04-25T14:17:30.321Z,41.50
2018-04-25T14:19:58.557Z,42.40
2018-04-25T14:22:27.628Z,41.80
2018-04-25T14:24:55.872Z,41.80
2018-04-25T14:27:25.018Z,41.70
2018-04-25T14:29:54.068Z,39.80
2018-04-25T14:32:22.358Z,39.80
2018-04-25T14:34:50.632Z,40.00
2018-04-25T14:37:18.959Z,41.10
2018-04-25T14:39:47.233Z,41.10
2018-04-25T14:42:15.515Z,40.90
2018-04-25T14:44:43.802Z,41.00
2018-04-25T14:47:12.040Z,42.00
2018-04-25T14:49:41.072Z,36.40
2018-04-25T14:52:09.325Z,36.30
2018-04-25T14:54:38.439Z,37.80
2018-04-25T14:57:07.421Z,35.50
2018-04-25T14:59:36.463Z,35.50
2018-04-25T15:02:04.703Z,35.50
2018-04-25T15:04:32.999Z,35.50
2018-04-25T15:07:01.273Z,36.40
2018-04-25T15:09:29.563Z,37.00
2018-04-25T15:11:57.854Z,37.20
2018-04-25T15:14:26.087Z,37.30
2018-04-25T15:16:54.350Z,37.50
2018-04-25T15:19:23.399Z,38.80
2018-04-25T15:21:51.680Z,38.90
2018-04-25T15:24:19.924Z,39.60
2018-04-25T15:26:48.182Z,39.70
2018-04-25T15:29:16.458Z,40.00
2018-04-25T15:31:45.511Z,40.60
2018-04-25T15:34:13.761Z,40.60
2018-04-25T15:36:42.011Z,40.80
2018-04-25T15:39:10.320Z,41.30
2018-04-25T15:41:38.981Z,41.50
2018-04-25T15:44:07.291Z,41.80
2018-04-25T15:46:35.618Z,42.00
2018-04-25T15:49:03.839Z,42.20
2018-04-25T15:51:32.145Z,42.30
2018-04-25T15:54:00.434Z,42.60
2018-04-25T15:56:28.724Z,42.60
2018-04-25T15:58:57.744Z,42.70
2018-04-25T16:01:26.010Z,42.70
2018-04-25T16:03:54.295Z,42.60
2018-04-25T16:06:22.600Z,42.40
2018-04-25T16:08:50.881Z,42.80
2018-04-25T16:11:19.159Z,42.70
2018-04-25T16:13:47.407Z,43.10
2018-04-25T16:16:15.669Z,43.00
2018-04-25T16:18:44.685Z,43.20
2018-04-25T16:21:12.934Z,43.20
2018-04-25T16:23:41.943Z,42.20
2018-04-25T16:26:10.246Z,42.20
2018-04-25T16:28:38.527Z,42.10
2018-04-25T16:31:06.851Z,41.80
2018-04-25T16:33:35.126Z,42.20
2018-04-25T16:36:03.458Z,42.30
2018-04-25T16:38:32.580Z,42.20
2018-04-25T16:41:02.330Z,42.50
2018-04-25T16:43:31.366Z,42.50
2018-04-25T16:45:59.655Z,42.40
2018-04-25T16:48:27.982Z,42.60
2018-04-25T16:50:57.027Z,43.10
2018-04-25T16:53:25.369Z,43.10
2018-04-25T16:55:53.635Z,42.90
2018-04-25T16:58:22.774Z,42.80
2018-04-25T17:00:51.048Z,42.70
2018-04-25T17:03:19.298Z,42.90
2018-04-25T17:05:47.563Z,43.00
2018-04-25T17:08:15.839Z,42.70
2018-04-25T17:10:44.873Z,43.10
2018-04-25T17:13:13.118Z,43.10
2018-04-25T17:15:41.424Z,42.80
2018-04-25T17:18:10.468Z,43.10
2018-04-25T17:20:39.503Z,43.10
2018-04-25T17:23:07.757Z,43.10
2018-04-25T17:25:36.772Z,43.40
2018-04-25T17:28:05.077Z,43.30
2018-04-25T17:30:33.390Z,43.40
2018-04-25T17:33:01.653Z,43.40
2018-04-25T17:35:29.880Z,43.40
2018-04-25T17:37:58.194Z,43.50
2018-04-25T17:40:26.492Z,43.70
2018-04-25T17:42:54.889Z,44.90
2018-04-25T17:45:23.053Z,44.20
2018-04-25T17:47:52.126Z,44.10
2018-04-25T17:50:20.412Z,44.10
2018-04-25T17:52:48.648Z,44.50
2018-04-25T17:55:16.901Z,44.20
2018-04-25T17:57:45.219Z,44.10
2018-04-25T18:00:13.503Z,44.60
2018-04-25T18:02:41.843Z,44.30
2018-04-25T18:05:10.242Z,45.00
2018-04-25T18:07:38.533Z,44.70
2018-04-25T18:10:06.849Z,44.80
2018-04-25T18:12:35.195Z,44.90
2018-04-25T18:15:03.478Z,45.10
2018-04-25T18:17:33.242Z,45.70
2018-04-25T18:20:01.554Z,45.40
2018-04-25T18:22:29.808Z,45.20
2018-04-25T18:24:58.107Z,45.60
2018-04-25T18:27:26.371Z,45.60
2018-04-25T18:29:54.624Z,45.80
2018-04-25T18:32:22.910Z,45.50
2018-04-25T18:34:51.231Z,45.90
2018-04-25T18:37:19.484Z,45.90
2018-04-25T18:39:47.773Z,46.30
2018-04-25T18:42:16.077Z,45.70
2018-04-25T18:44:45.854Z,46.70
2018-04-25T18:47:14.172Z,46.70
2018-04-25T18:49:42.468Z,46.50
2018-04-25T18:52:11.481Z,46.40
2018-04-25T18:54:39.797Z,46.40
2018-04-25T18:57:08.169Z,46.70
2018-04-25T18:59:36.412Z,46.40
2018-04-25T19:02:04.687Z,46.60
2018-04-25T19:04:32.939Z,46.30
2018-04-25T19:07:02.009Z,46.50
2018-04-25T19:09:30.254Z,46.50
2018-04-25T19:11:58.516Z,46.70
2018-04-25T19:14:26.790Z,46.50
2018-04-25T19:16:55.835Z,47.50
2018-04-25T19:19:24.183Z,47.40
2018-04-25T19:21:52.456Z,47.20
2018-04-25T19:24:20.853Z,46.80
2018-04-25T19:26:49.236Z,46.80
2018-04-25T19:29:17.506Z,47.30
2018-04-25T19:31:45.756Z,46.90
2018-04-25T19:34:14.081Z,47.50
2018-04-25T19:36:42.357Z,47.00
2018-04-25T19:39:10.615Z,47.10
2018-04-25T19:41:38.905Z,46.60
2018-04-25T19:44:07.193Z,46.90
2018-04-25T19:46:35.433Z,46.90
2018-04-25T19:49:03.762Z,46.70
2018-04-25T19:51:33.638Z,47.00
2018-04-25T19:54:01.895Z,47.60
2018-04-25T19:56:30.186Z,46.90
2018-04-25T19:58:58.466Z,47.00
2018-04-25T20:01:26.727Z,46.60
2018-04-25T20:03:54.971Z,46.90
2018-04-25T20:06:24.000Z,46.90
2018-04-25T20:08:52.289Z,46.90
2018-04-25T20:11:21.269Z,46.70
2018-04-25T20:13:49.540Z,47.20
2018-04-25T20:16:17.869Z,47.00
2018-04-25T20:18:46.143Z,47.10
2018-04-25T20:21:14.454Z,47.20
2018-04-25T20:23:43.488Z,47.40
2018-04-25T20:26:11.773Z,47.30
2018-04-25T20:28:40.054Z,47.30
2018-04-25T20:31:08.332Z,47.30
2018-04-25T20:33:36.583Z,47.40
2018-04-25T20:36:04.832Z,47.70
2018-04-25T20:38:33.895Z,48.40
2018-04-25T20:41:02.139Z,48.40
2018-04-25T20:43:30.392Z,48.70
2018-04-25T20:45:59.415Z,48.60
2018-04-25T20:48:27.671Z,48.60
2018-04-25T20:50:55.933Z,48.30
2018-04-25T20:53:24.961Z,48.50
2018-04-25T20:55:53.202Z,48.60
2018-04-25T20:58:22.296Z,48.80
2018-04-25T21:00:51.352Z,47.80
2018-04-25T21:03:19.672Z,48.20
2018-04-25T21:05:48.724Z,47.90
2018-04-25T21:08:17.041Z,47.90
2018-04-25T21:10:46.049Z,47.90
2018-04-25T21:13:15.105Z,48.50
2018-04-25T21:15:43.372Z,47.80
2018-04-25T21:18:11.666Z,48.50
2018-04-25T21:20:40.031Z,48.10
2018-04-25T21:23:08.278Z,48.20
2018-04-25T21:25:36.521Z,48.10
2018-04-25T21:28:05.538Z,48.40
2018-04-25T21:30:33.805Z,48.40
2018-04-25T21:33:02.122Z,49.30
2018-04-25T21:35:30.410Z,49.60
2018-04-25T21:37:58.668Z,50.00
2018-04-25T21:40:26.969Z,50.40
2018-04-25T21:42:55.227Z,50.50
2018-04-25T21:45:23.485Z,50.40
2018-04-25T21:47:51.741Z,49.90
2018-04-25T21:50:20.827Z,50.40
2018-04-25T21:52:49.906Z,50.70
2018-04-25T21:55:18.186Z,50.70
2018-04-25T21:57:48.008Z,49.30
2018-04-25T22:00:17.042Z,50.30
2018-04-25T22:02:45.294Z,50.20
2018-04-25T22:05:13.585Z,50.90
2018-04-25T22:07:41.939Z,50.10
2018-04-25T22:10:10.936Z,49.90
2018-04-25T22:12:40.002Z,49.40
2018-04-25T22:15:08.229Z,49.40
2018-04-25T22:17:36.487Z,49.70
2018-04-25T22:20:05.547Z,49.60
2018-04-25T22:22:33.796Z,49.60
2018-04-25T22:25:02.083Z,49.90
2018-04-25T22:27:30.343Z,50.50
2018-04-25T22:29:58.631Z,50.00
2018-04-25T22:32:26.916Z,50.20
2018-04-25T22:34:55.171Z,50.00
2018-04-25T22:37:23.423Z,51.00
2018-04-25T22:39:52.439Z,50.80
2018-04-25T22:42:20.721Z,50.80
2018-04-25T22:44:48.977Z,50.20
2018-04-25T22:47:17.266Z,50.30
2018-04-25T22:49:45.641Z,50.30
2018-04-25T22:52:13.866Z,50.40
2018-04-25T22:54:42.121Z,50.20
2018-04-25T22:57:10.368Z,50.50
2018-04-25T22:59:38.668Z,51.00
2018-04-25T23:02:06.907Z,51.20
2018-04-25T23:04:35.931Z,51.30
2018-04-25T23:07:04.214Z,51.30
2018-04-25T23:09:32.477Z,50.70
2018-04-25T23:12:00.723Z,50.30
2018-04-25T23:14:29.039Z,50.60
2018-04-25T23:16:57.319Z,50.50
2018-04-25T23:19:25.631Z,50.90
2018-04-25T23:21:53.863Z,51.00
2018-04-25T23:24:22.110Z,50.70
2018-04-25T23:26:51.135Z,50.80
2018-04-25T23:29:19.383Z,50.80
2018-04-25T23:31:48.422Z,51.20
2018-04-25T23:34:16.663Z,51.20
2018-04-25T23:36:45.700Z,51.10
2018-04-25T23:39:13.973Z,51.10
2018-04-25T23:41:42.219Z,50.80
2018-04-25T23:44:10.503Z,50.60
2018-04-25T23:46:38.760Z,50.20
2018-04-25T23:49:07.818Z,50.80
2018-04-25T23:51:36.108Z,50.70
2018-04-25T23:54:04.341Z,51.30
2018-04-25T23:56:32.599Z,51.50
2018-04-25T23:59:00.898Z,51.30
